Time;durP1;ratioP1;P1;durP2;ratioP2;P2;SDS_P1;SDS_P2;PMS_P1;PMS_P2;Temp;Humidity;BMP_temperature;BMP_pressure;BME280_temperature;BME280_humidity;BME280_pressure;Samples;Min_cycle;Max_cycle;Signal;HPM_P1;HPM_P2
2023/08/22 00:00:00;;;;;;;7.63;6.83;;;24.30;74.90;;;;;;5095049;28;20493;-76
2023/08/22 00:02:27;;;;;;;8.30;6.83;;;24.30;75.30;;;;;;5095063;28;20557;-76
2023/08/22 00:04:54;;;;;;;11.73;7.33;;;24.30;75.40;;;;;;5094681;28;21139;-75
2023/08/22 00:07:22;;;;;;;8.40;7.20;;;24.20;75.10;;;;;;5094745;28;20501;-75
2023/08/22 00:09:49;;;;;;;9.80;7.70;;;24.20;75.50;;;;;;5094461;28;20502;-76
2023/08/22 00:12:19;;;;;;;8.20;6.30;;;24.10;75.60;;;;;;5094383;28;22369;-76
2023/08/22 00:14:46;;;;;;;11.30;7.23;;;24.10;75.90;;;;;;5094507;28;20760;-76
2023/08/22 00:17:18;;;;;;;8.70;7.40;;;24.10;76.20;;;;;;5094583;28;20518;-76
2023/08/22 00:19:47;;;;;;;8.83;6.50;;;24.10;76.20;;;;;;5094321;28;20891;-76
2023/08/22 00:22:14;;;;;;;8.90;7.07;;;24.10;76.10;;;;;;5094784;28;20439;-76
2023/08/22 00:24:41;;;;;;;8.47;7.67;;;24.00;76.20;;;;;;5094363;28;20848;-76
2023/08/22 00:27:11;;;;;;;9.20;7.37;;;24.00;76.40;;;;;;5093862;28;20486;-76
2023/08/22 00:29:40;;;;;;;9.93;8.10;;;24.00;76.30;;;;;;5094494;28;20435;-76
2023/08/22 00:32:07;;;;;;;8.43;7.20;;;23.90;76.40;;;;;;5094587;28;20467;-76
2023/08/22 00:34:34;;;;;;;13.33;7.27;;;23.80;76.80;;;;;;5094361;28;20459;-76
2023/08/22 00:37:01;;;;;;;9.70;8.30;;;23.80;76.90;;;;;;5094109;28;20436;-76
2023/08/22 00:39:30;;;;;;;12.60;7.70;;;23.80;76.80;;;;;;5094517;28;20787;-76
2023/08/22 00:41:57;;;;;;;10.90;8.10;;;23.80;77.00;;;;;;5094246;28;20431;-77
2023/08/22 00:44:27;;;;;;;8.83;7.93;;;23.80;77.20;;;;;;5094213;28;20439;-77
2023/08/22 00:46:56;;;;;;;8.90;7.20;;;23.70;77.20;;;;;;5093657;28;20439;-76
2023/08/22 00:49:23;;;;;;;12.60;8.00;;;23.70;77.40;;;;;;5094142;28;20463;-76
2023/08/22 00:51:54;;;;;;;11.47;7.50;;;23.70;77.20;;;;;;5093979;28;20460;-76
2023/08/22 00:54:22;;;;;;;11.10;7.60;;;23.70;77.10;;;;;;5094048;28;20550;-76
2023/08/22 00:56:49;;;;;;;9.60;7.50;;;23.70;77.20;;;;;;5093522;28;20435;-76
2023/08/22 00:59:17;;;;;;;14.63;8.17;;;23.70;77.40;;;;;;5093792;28;20439;-76
2023/08/22 01:01:49;;;;;;;12.90;8.50;;;23.70;77.50;;;;;;5093889;28;20843;-76
2023/08/22 01:04:18;;;;;;;8.27;7.47;;;23.70;77.30;;;;;;5093617;28;20463;-76
2023/08/22 01:06:51;;;;;;;9.77;8.27;;;23.70;77.30;;;;;;5092977;28;20875;-76
2023/08/22 01:09:27;;;;;;;13.10;8.70;;;23.70;77.30;;;;;;5093942;28;20420;-76
2023/08/22 01:12:04;;;;;;;11.10;6.83;;;23.60;77.50;;;;;;5093996;28;20451;-75
2023/08/22 01:14:35;;;;;;;9.57;7.67;;;23.70;77.80;;;;;;5093898;28;20481;-76
2023/08/22 01:17:04;;;;;;;7.60;6.60;;;23.60;77.70;;;;;;5092963;28;20905;-76
2023/08/22 01:19:33;;;;;;;8.40;6.57;;;23.60;77.90;;;;;;5093566;28;20482;-75
2023/08/22 01:22:01;;;;;;;14.53;6.87;;;23.60;77.80;;;;;;5093717;28;20851;-76
2023/08/22 01:24:30;;;;;;;9.07;6.50;;;23.50;77.70;;;;;;5093664;28;20843;-77
2023/08/22 01:26:58;;;;;;;8.10;6.87;;;23.50;77.80;;;;;;5093309;28;20912;-76
2023/08/22 01:29:36;;;;;;;13.37;7.37;;;23.40;77.90;;;;;;5093298;28;20902;-75
2023/08/22 01:32:09;;;;;;;12.90;7.80;;;23.40;77.90;;;;;;5093595;28;20455;-75
2023/08/22 01:34:41;;;;;;;9.80;7.97;;;23.30;77.60;;;;;;5093174;28;20503;-76
2023/08/22 01:37:12;;;;;;;8.63;7.47;;;23.20;77.70;;;;;;5092771;28;20436;-75
2023/08/22 01:39:42;;;;;;;9.33;8.30;;;23.10;77.80;;;;;;5093193;28;20463;-75
2023/08/22 01:42:11;;;;;;;9.47;7.80;;;23.10;78.40;;;;;;5093496;28;20502;-75
2023/08/22 01:44:43;;;;;;;11.63;7.40;;;23.00;78.60;;;;;;5093105;28;20942;-75
2023/08/22 01:47:10;;;;;;;9.30;7.67;;;23.00;79.10;;;;;;5093899;28;20495;-77
2023/08/22 01:49:37;;;;;;;11.67;8.33;;;23.00;79.50;;;;;;5097295;28;20518;-76
2023/08/22 01:52:05;;;;;;;13.00;7.70;;;23.00;79.50;;;;;;5097218;28;20470;-76
2023/08/22 01:54:39;;;;;;;13.37;8.03;;;22.90;79.60;;;;;;5097487;28;20497;-76
2023/08/22 01:57:11;;;;;;;10.63;7.67;;;23.00;79.60;;;;;;5097236;28;20431;-76
2023/08/22 01:59:38;;;;;;;9.37;7.40;;;22.90;79.30;;;;;;5097109;28;20423;-81
2023/08/22 02:02:08;;;;;;;8.50;7.30;;;22.90;79.30;;;;;;5097356;28;20780;-76
2023/08/22 02:04:40;;;;;;;9.17;7.20;;;22.90;79.20;;;;;;5097650;28;20858;-76
2023/08/22 02:07:07;;;;;;;12.17;7.60;;;22.80;79.10;;;;;;5097016;28;20531;-75
2023/08/22 02:09:35;;;;;;;8.83;7.80;;;22.80;79.50;;;;;;5096698;28;20470;-76
2023/08/22 02:12:02;;;;;;;8.60;7.37;;;22.70;80.00;;;;;;5097462;28;20428;-76
2023/08/22 02:14:29;;;;;;;9.70;8.30;;;22.70;80.60;;;;;;5097088;28;20528;-75
2023/08/22 02:16:58;;;;;;;8.73;7.00;;;22.70;80.60;;;;;;5096558;28;20473;-75
2023/08/22 02:19:25;;;;;;;8.23;7.03;;;22.70;80.60;;;;;;5097330;28;20443;-75
2023/08/22 02:21:55;;;;;;;13.43;7.00;;;22.60;80.50;;;;;;5097003;28;20516;-75
2023/08/22 02:24:22;;;;;;;9.07;6.97;;;22.60;80.60;;;;;;5097060;28;20467;-75
2023/08/22 02:26:51;;;;;;;10.47;8.43;;;22.60;81.00;;;;;;5096423;28;20467;-75
2023/08/22 02:29:19;;;;;;;7.70;6.70;;;22.60;81.10;;;;;;5096766;28;20445;-76
2023/08/22 02:31:48;;;;;;;9.00;8.10;;;22.50;81.30;;;;;;5095363;28;20439;-75
2023/08/22 02:34:15;;;;;;;9.07;7.70;;;22.40;81.50;;;;;;5096159;28;20829;-75
2023/08/22 02:36:42;;;;;;;9.77;7.93;;;22.40;81.30;;;;;;5096662;28;20488;-76
2023/08/22 02:39:09;;;;;;;8.60;7.60;;;22.40;81.50;;;;;;5096560;28;20785;-75
2023/08/22 02:41:36;;;;;;;11.93;7.57;;;22.40;81.30;;;;;;5095670;28;20584;-75
2023/08/22 02:44:05;;;;;;;7.90;7.00;;;22.30;81.20;;;;;;5096103;28;20497;-75
2023/08/22 02:46:32;;;;;;;9.83;7.70;;;22.30;81.40;;;;;;5096260;28;20473;-77
2023/08/22 02:49:00;;;;;;;12.93;7.97;;;22.20;80.90;;;;;;5096259;28;20470;-75
2023/08/22 02:51:30;;;;;;;7.77;6.77;;;22.20;80.90;;;;;;5095848;28;20446;-75
2023/08/22 02:53:58;;;;;;;8.80;7.43;;;22.10;81.40;;;;;;5096295;28;20506;-75
2023/08/22 02:56:27;;;;;;;9.60;8.07;;;22.10;81.80;;;;;;5096618;28;20514;-75
2023/08/22 02:58:54;;;;;;;9.50;8.43;;;22.10;82.20;;;;;;5094662;28;20981;-75
2023/08/22 03:01:22;;;;;;;8.63;7.73;;;22.10;82.50;;;;;;5095526;28;20468;-75
2023/08/22 03:03:51;;;;;;;9.60;7.00;;;22.10;82.60;;;;;;5095957;28;20960;-76
2023/08/22 03:09:03;;;;;;;10.37;8.37;;;22.00;82.90;;;;;;5095927;28;20405;-75
2023/08/22 03:11:30;;;;;;;9.00;7.00;;;22.00;83.10;;;;;;5095311;28;20538;-75
2023/08/22 03:13:57;;;;;;;15.30;7.30;;;22.00;83.50;;;;;;5095634;28;20471;-75
2023/08/22 03:16:25;;;;;;;16.50;8.53;;;21.90;83.30;;;;;;5095923;28;20466;-75
2023/08/22 03:18:53;;;;;;;9.90;8.00;;;21.90;83.30;;;;;;5095685;28;20428;-75
2023/08/22 03:21:19;;;;;;;12.60;8.50;;;21.90;83.40;;;;;;5095317;28;20471;-75
2023/08/22 03:23:46;;;;;;;9.07;7.33;;;21.90;83.70;;;;;;5095854;28;20523;-76
2023/08/22 03:26:13;;;;;;;9.87;7.57;;;21.80;84.80;;;;;;5095688;28;20434;-75
2023/08/22 03:28:42;;;;;;;12.53;8.03;;;21.80;84.80;;;;;;5096023;28;20432;-76
2023/08/22 03:31:09;;;;;;;13.50;7.70;;;21.80;84.50;;;;;;5095304;28;20467;-75
2023/08/22 03:33:38;;;;;;;8.40;7.60;;;21.80;85.00;;;;;;5095636;28;20474;-75
2023/08/22 03:36:05;;;;;;;9.87;7.43;;;21.70;85.20;;;;;;5095592;28;20859;-75
2023/08/22 03:38:32;;;;;;;9.60;8.00;;;21.70;85.40;;;;;;5095523;28;20471;-75
2023/08/22 03:40:59;;;;;;;8.87;7.13;;;21.70;85.60;;;;;;5095195;28;20480;-75
2023/08/22 03:43:26;;;;;;;13.60;8.43;;;21.70;85.30;;;;;;5095463;28;20447;-75
2023/08/22 03:45:53;;;;;;;10.73;8.50;;;21.80;84.70;;;;;;5095394;28;20435;-75
2023/08/22 03:48:20;;;;;;;11.80;7.37;;;21.80;85.10;;;;;;5095524;28;20431;-75
2023/08/22 03:50:49;;;;;;;8.60;6.57;;;21.80;84.40;;;;;;5094585;28;20436;-75
2023/08/22 03:53:16;;;;;;;12.00;7.63;;;21.70;84.30;;;;;;5094873;28;20432;-76
2023/08/22 03:55:45;;;;;;;9.17;6.63;;;21.70;84.60;;;;;;5094976;28;20556;-75
2023/08/22 03:58:12;;;;;;;9.90;7.33;;;21.70;84.90;;;;;;5095148;28;20846;-75
2023/08/22 04:00:41;;;;;;;13.07;7.63;;;21.60;85.10;;;;;;5094685;28;20459;-75
2023/08/22 04:03:08;;;;;;;8.03;7.13;;;21.60;84.60;;;;;;5095236;28;20437;-75
2023/08/22 04:05:35;;;;;;;9.40;7.50;;;21.60;83.30;;;;;;5094783;28;20473;-75
2023/08/22 04:08:03;;;;;;;8.10;7.30;;;21.50;82.70;;;;;;5095054;28;20440;-75
2023/08/22 04:10:31;;;;;;;9.60;8.03;;;21.50;83.10;;;;;;5094401;28;20949;-76
2023/08/22 04:12:58;;;;;;;11.80;9.00;;;21.40;83.60;;;;;;5094227;28;20519;-75
2023/08/22 04:15:25;;;;;;;9.33;8.33;;;21.40;83.90;;;;;;5094145;28;20506;-75
2023/08/22 04:17:52;;;;;;;8.53;7.63;;;21.30;84.40;;;;;;5094780;28;20431;-76
2023/08/22 04:20:20;;;;;;;9.30;7.40;;;21.30;84.80;;;;;;5094844;28;20533;-75
2023/08/22 04:22:47;;;;;;;9.53;7.13;;;21.20;85.20;;;;;;5094384;28;20492;-75
2023/08/22 04:25:15;;;;;;;10.67;7.67;;;21.20;85.60;;;;;;5094774;28;20525;-75
2023/08/22 04:27:42;;;;;;;9.23;7.90;;;21.20;86.00;;;;;;5094008;28;20459;-75
2023/08/22 04:30:10;;;;;;;10.30;8.97;;;21.20;85.60;;;;;;5094070;28;20448;-75
2023/08/22 04:32:37;;;;;;;10.40;8.90;;;21.20;86.10;;;;;;5093980;28;20470;-74
2023/08/22 04:35:04;;;;;;;11.23;10.00;;;21.20;86.20;;;;;;5094129;28;20540;-75
2023/08/22 04:37:31;;;;;;;8.87;7.53;;;21.20;86.20;;;;;;5094042;28;20466;-75
2023/08/22 04:39:58;;;;;;;10.97;8.40;;;21.20;85.90;;;;;;5093863;28;20964;-75
2023/08/22 04:42:27;;;;;;;9.10;7.00;;;21.20;86.20;;;;;;5093451;28;20944;-75
2023/08/22 04:44:54;;;;;;;11.83;7.63;;;21.20;86.30;;;;;;5094051;28;20858;-75
2023/08/22 04:47:21;;;;;;;12.03;8.20;;;21.20;85.90;;;;;;5091516;28;20443;-75
2023/08/22 04:49:48;;;;;;;9.60;8.60;;;21.20;86.00;;;;;;5093721;28;20438;-75
2023/08/22 04:52:15;;;;;;;10.13;8.70;;;21.20;86.10;;;;;;5092939;28;20933;-75
2023/08/22 04:54:42;;;;;;;12.03;9.00;;;21.20;86.10;;;;;;5093336;28;20671;-75
2023/08/22 04:57:14;;;;;;;12.10;8.00;;;21.20;86.30;;;;;;5093293;28;20846;-75
2023/08/22 04:59:42;;;;;;;9.50;8.50;;;21.20;86.40;;;;;;5093052;28;20522;-75
2023/08/22 05:02:09;;;;;;;10.73;8.13;;;21.20;86.40;;;;;;5092482;28;20522;-75
2023/08/22 05:04:36;;;;;;;9.37;8.43;;;21.20;86.70;;;;;;5092765;28;20432;-75
2023/08/22 05:07:03;;;;;;;8.30;7.40;;;21.20;87.00;;;;;;5093394;28;20476;-75
2023/08/22 05:09:30;;;;;;;9.63;8.63;;;21.20;87.30;;;;;;5092484;28;20562;-76
2023/08/22 05:11:57;;;;;;;10.30;9.00;;;21.30;87.70;;;;;;5092957;28;20873;-75
2023/08/22 05:14:24;;;;;;;13.43;9.93;;;21.30;87.80;;;;;;5092399;28;20495;-76
2023/08/22 05:16:53;;;;;;;12.60;9.67;;;21.40;87.90;;;;;;5092407;28;20439;-75
2023/08/22 05:19:20;;;;;;;8.60;7.80;;;21.40;87.90;;;;;;5092632;28;20522;-75
2023/08/22 05:21:48;;;;;;;11.97;9.13;;;21.50;88.00;;;;;;5092210;28;20427;-75
2023/08/22 05:24:15;;;;;;;12.43;8.40;;;21.50;88.30;;;;;;5092877;28;20453;-75
2023/08/22 05:26:42;;;;;;;11.90;9.23;;;21.50;87.90;;;;;;5092076;28;20478;-76
2023/08/22 05:29:09;;;;;;;12.37;7.73;;;21.60;88.30;;;;;;5092699;28;20440;-81
2023/08/22 05:31:38;;;;;;;15.30;8.60;;;21.70;88.10;;;;;;5092393;28;20555;-75
2023/08/22 05:34:06;;;;;;;9.67;8.60;;;21.70;88.10;;;;;;5092336;28;20583;-77
2023/08/22 05:36:33;;;;;;;14.23;8.43;;;21.80;88.50;;;;;;5092605;28;20520;-75
2023/08/22 05:39:00;;;;;;;11.87;9.97;;;21.90;88.60;;;;;;5092339;28;20435;-74
2023/08/22 05:41:27;;;;;;;10.17;8.60;;;22.00;89.00;;;;;;5092313;28;20438;-75
2023/08/22 05:43:54;;;;;;;9.00;7.73;;;22.00;89.20;;;;;;5092385;28;20515;-75
2023/08/22 05:46:24;;;;;;;10.50;9.23;;;22.10;89.20;;;;;;5091646;28;20442;-75
2023/08/22 05:48:51;;;;;;;10.70;9.20;;;22.10;89.10;;;;;;5091726;28;20484;-75
2023/08/22 05:51:20;;;;;;;11.50;8.40;;;22.20;89.10;;;;;;5092264;28;20520;-75
2023/08/22 05:53:47;;;;;;;12.07;9.10;;;22.30;89.20;;;;;;5091551;28;20467;-75
2023/08/22 05:56:14;;;;;;;13.47;9.33;;;22.40;89.10;;;;;;5092577;28;20428;-75
2023/08/22 05:58:41;;;;;;;10.90;8.17;;;22.50;89.20;;;;;;5092073;28;20908;-80
2023/08/22 06:01:14;;;;;;;9.60;7.40;;;22.60;89.50;;;;;;5092003;28;20867;-76
2023/08/22 06:03:48;;;;;;;12.23;8.57;;;22.60;89.00;;;;;;5088598;28;20505;-76
2023/08/22 06:06:15;;;;;;;9.03;7.90;;;22.70;88.70;;;;;;5091555;28;20447;-75
2023/08/22 06:08:43;;;;;;;11.23;8.90;;;22.80;88.60;;;;;;5091443;28;20996;-76
2023/08/22 06:11:10;;;;;;;11.60;9.70;;;22.90;88.80;;;;;;5091559;28;20523;-75
2023/08/22 06:13:37;;;;;;;15.07;9.40;;;23.00;88.30;;;;;;5092214;28;20437;-76
2023/08/22 06:16:04;;;;;;;13.13;8.40;;;23.00;88.40;;;;;;5090847;28;20550;-75
2023/08/22 06:18:39;;;;;;;14.30;9.03;;;23.10;88.80;;;;;;5091838;28;20463;-75
2023/08/22 06:21:06;;;;;;;11.20;9.23;;;23.20;89.10;;;;;;5091986;28;20451;-75
2023/08/22 06:23:33;;;;;;;10.07;8.60;;;23.40;89.20;;;;;;5089079;28;20468;-75
2023/08/22 06:26:02;;;;;;;10.77;8.50;;;23.50;88.50;;;;;;5090848;28;20443;-75
2023/08/22 06:28:29;;;;;;;12.63;8.37;;;23.60;88.20;;;;;;5092333;28;20500;-75
2023/08/22 06:31:02;;;;;;;12.30;7.20;;;23.70;88.40;;;;;;5091839;28;20906;-76
2023/08/22 06:33:29;;;;;;;13.77;9.80;;;23.80;88.40;;;;;;5093609;28;20420;-77
2023/08/22 06:35:56;;;;;;;15.67;9.80;;;23.90;88.00;;;;;;5096020;28;20475;-75
2023/08/22 06:38:23;;;;;;;11.63;8.73;;;24.00;87.50;;;;;;5092612;28;20444;-75
2023/08/22 06:40:50;;;;;;;10.23;8.87;;;24.20;87.50;;;;;;5095526;28;20467;-75
2023/08/22 06:43:18;;;;;;;8.93;8.10;;;24.30;87.90;;;;;;5095648;28;20836;-76
2023/08/22 06:45:45;;;;;;;12.20;7.40;;;24.40;88.20;;;;;;5095671;28;20482;-76
2023/08/22 06:48:12;;;;;;;13.90;9.73;;;24.60;88.30;;;;;;5095684;28;20786;-75
2023/08/22 06:50:39;;;;;;;17.23;8.53;;;24.70;88.80;;;;;;5095674;28;20435;-76
2023/08/22 06:53:06;;;;;;;12.03;8.73;;;24.80;89.60;;;;;;5095591;28;20486;-76
2023/08/22 06:55:33;;;;;;;9.57;8.27;;;24.90;89.60;;;;;;5095799;28;20517;-75
2023/08/22 06:58:01;;;;;;;11.50;7.37;;;24.90;89.00;;;;;;5094871;28;20439;-75
2023/08/22 07:00:29;;;;;;;12.40;7.40;;;25.10;88.60;;;;;;5093255;28;21089;-81
2023/08/22 07:02:57;;;;;;;13.13;7.93;;;25.20;88.10;;;;;;5095854;28;20511;-75
2023/08/22 07:05:23;;;;;;;10.13;7.93;;;25.30;87.90;;;;;;5095823;28;20955;-75
2023/08/22 07:07:50;;;;;;;12.87;8.13;;;25.40;87.40;;;;;;5095700;28;20906;-75
2023/08/22 07:10:17;;;;;;;10.60;7.10;;;25.40;84.90;;;;;;5095624;28;20459;-75
2023/08/22 07:12:44;;;;;;;10.20;7.60;;;25.50;81.90;;;;;;5095914;28;20432;-76
2023/08/22 07:15:12;;;;;;;9.23;7.20;;;25.60;81.70;;;;;;5095710;28;20513;-76
2023/08/22 07:17:40;;;;;;;10.60;7.23;;;25.70;81.60;;;;;;5095363;28;20898;-76
2023/08/22 07:20:08;;;;;;;7.83;6.90;;;25.90;80.80;;;;;;5095361;28;20975;-76
2023/08/22 07:22:35;;;;;;;10.17;6.97;;;25.90;79.20;;;;;;5095209;28;20444;-75
2023/08/22 07:25:03;;;;;;;8.40;7.00;;;26.00;77.70;;;;;;5095694;28;20780;-76
2023/08/22 07:27:30;;;;;;;12.63;7.43;;;26.10;75.60;;;;;;5095085;28;20439;-75
2023/08/22 07:29:57;;;;;;;8.40;6.87;;;26.20;73.20;;;;;;5094741;28;20439;-76
2023/08/22 07:32:24;;;;;;;12.53;6.87;;;26.20;73.70;;;;;;5095156;28;20431;-75
2023/08/22 07:34:52;;;;;;;8.90;7.20;;;26.40;74.70;;;;;;5095478;28;20467;-75
2023/08/22 07:37:19;;;;;;;7.70;6.10;;;26.60;75.50;;;;;;5095427;28;20729;-75
2023/08/22 07:39:46;;;;;;;7.90;7.10;;;26.70;75.80;;;;;;5095399;28;20431;-75
2023/08/22 07:42:13;;;;;;;6.80;5.80;;;26.90;74.20;;;;;;5095692;28;20428;-75
2023/08/22 07:44:40;;;;;;;9.70;7.33;;;27.00;73.10;;;;;;5094552;28;20435;-76
2023/08/22 07:47:07;;;;;;;12.20;7.00;;;27.20;73.30;;;;;;5095250;28;20496;-76
2023/08/22 07:49:34;;;;;;;11.33;6.87;;;27.50;73.50;;;;;;5094904;28;20917;-75
2023/08/22 07:52:03;;;;;;;8.47;6.93;;;27.70;73.00;;;;;;5094733;28;20519;-75
2023/08/22 07:54:30;;;;;;;7.83;6.40;;;27.90;72.80;;;;;;5094980;28;20518;-76
2023/08/22 07:56:58;;;;;;;8.80;6.80;;;28.20;73.00;;;;;;5094617;28;20525;-75
2023/08/22 07:59:25;;;;;;;11.27;6.97;;;28.50;71.40;;;;;;5094700;28;20522;-76
2023/08/22 08:01:52;;;;;;;8.30;7.03;;;28.70;70.30;;;;;;5094870;28;20432;-76
2023/08/22 08:04:20;;;;;;;7.83;6.90;;;29.00;70.70;;;;;;5094850;28;20858;-76
2023/08/22 08:06:47;;;;;;;7.90;6.57;;;29.40;69.70;;;;;;5094939;28;20890;-76
2023/08/22 08:09:15;;;;;;;7.07;5.80;;;29.60;69.30;;;;;;5094620;28;20485;-76
2023/08/22 08:11:43;;;;;;;7.13;6.27;;;29.90;69.70;;;;;;5094909;28;20420;-75
2023/08/22 08:14:11;;;;;;;9.57;6.97;;;30.30;68.30;;;;;;5094365;28;20431;-75
2023/08/22 08:16:38;;;;;;;8.77;6.70;;;30.60;65.80;;;;;;5094419;28;20490;-76
2023/08/22 08:19:05;;;;;;;8.50;6.73;;;30.90;63.90;;;;;;5094254;28;20496;-76
2023/08/22 08:21:32;;;;;;;7.07;5.40;;;31.10;61.60;;;;;;5094577;28;20432;-76
2023/08/22 08:23:59;;;;;;;10.00;6.50;;;31.30;60.10;;;;;;5094132;28;20887;-76
2023/08/22 08:26:27;;;;;;;7.93;5.80;;;31.60;59.10;;;;;;5094623;28;20488;-75
2023/08/22 08:28:54;;;;;;;8.60;6.17;;;31.80;57.00;;;;;;5094148;28;20427;-76
2023/08/22 08:31:21;;;;;;;9.70;6.77;;;32.00;56.10;;;;;;5094272;28;20818;-76
2023/08/22 08:33:48;;;;;;;8.23;6.50;;;32.30;54.60;;;;;;5094017;28;20489;-76
2023/08/22 08:36:15;;;;;;;7.53;6.47;;;32.50;54.90;;;;;;5093768;28;20496;-77
2023/08/22 08:38:42;;;;;;;11.20;6.77;;;32.70;53.70;;;;;;5094151;28;20436;-76
2023/08/22 08:41:10;;;;;;;8.13;6.07;;;33.00;53.70;;;;;;5094379;28;20513;-75
2023/08/22 08:43:39;;;;;;;9.03;6.43;;;33.30;52.70;;;;;;5094002;28;20823;-76
2023/08/22 08:46:07;;;;;;;7.03;6.30;;;33.50;51.00;;;;;;5093506;28;20528;-76
2023/08/22 08:48:36;;;;;;;8.43;6.17;;;33.70;50.40;;;;;;5093430;28;20489;-75
2023/08/22 08:51:05;;;;;;;7.10;6.27;;;33.90;50.20;;;;;;5094026;28;20528;-75
2023/08/22 08:53:33;;;;;;;9.30;7.00;;;34.00;49.70;;;;;;5093909;28;20462;-76
2023/08/22 08:56:00;;;;;;;8.00;5.90;;;34.20;50.00;;;;;;5093735;28;20888;-77
2023/08/22 08:58:27;;;;;;;8.77;7.63;;;34.40;48.40;;;;;;5091323;28;20432;-76
2023/08/22 09:00:57;;;;;;;12.40;6.40;;;34.60;47.20;;;;;;5093861;28;20432;-76
2023/08/22 09:03:25;;;;;;;9.23;6.60;;;34.80;45.90;;;;;;5093761;28;20428;-76
2023/08/22 09:05:52;;;;;;;7.50;6.70;;;35.00;44.80;;;;;;5093817;28;20780;-81
2023/08/22 09:08:23;;;;;;;9.80;6.60;;;35.20;46.00;;;;;;5093424;28;20463;-76
2023/08/22 09:10:51;;;;;;;11.90;6.40;;;35.30;46.40;;;;;;5094023;28;20463;-76
2023/08/22 09:13:25;;;;;;;10.63;7.27;;;35.50;45.20;;;;;;5093574;28;20514;-76
2023/08/22 09:15:52;;;;;;;7.00;6.13;;;35.70;44.40;;;;;;5093395;28;20452;-76
2023/08/22 09:18:20;;;;;;;8.93;6.70;;;35.90;44.50;;;;;;5093105;28;20467;-76
2023/08/22 09:20:47;;;;;;;11.43;6.53;;;36.00;44.90;;;;;;5093823;28;20424;-77
2023/08/22 09:23:27;;;;;;;6.87;6.17;;;36.10;44.30;;;;;;5093447;28;20457;-76
2023/08/22 09:25:54;;;;;;;12.40;6.80;;;36.40;43.80;;;;;;5093595;28;20788;-78
2023/08/22 09:28:21;;;;;;;8.53;6.20;;;36.60;42.80;;;;;;5093173;28;20435;-76
2023/08/22 09:30:49;;;;;;;8.57;6.63;;;36.70;41.20;;;;;;5093334;28;20477;-76
2023/08/22 09:33:16;;;;;;;9.10;6.00;;;36.80;41.70;;;;;;5093379;28;20429;-76
2023/08/22 09:35:46;;;;;;;10.27;6.10;;;37.00;42.80;;;;;;5093255;28;20552;-76
2023/08/22 09:38:13;;;;;;;7.40;5.80;;;37.10;43.70;;;;;;5093251;28;20424;-76
2023/08/22 09:40:51;;;;;;;9.93;6.90;;;37.30;42.60;;;;;;5093243;28;20432;-77
2023/08/22 09:43:20;;;;;;;6.93;6.10;;;37.40;40.90;;;;;;5093268;28;20823;-76
2023/08/22 09:45:49;;;;;;;8.53;5.97;;;37.50;41.10;;;;;;5093259;28;20527;-76
2023/08/22 09:48:22;;;;;;;8.83;5.87;;;37.60;40.80;;;;;;5093299;28;20490;-77
2023/08/22 09:50:55;;;;;;;6.57;5.90;;;37.70;41.10;;;;;;5092904;28;20428;-76
2023/08/22 09:53:24;;;;;;;10.20;6.40;;;37.90;41.10;;;;;;5092800;28;20429;-76
2023/08/22 09:55:54;;;;;;;8.03;6.27;;;38.00;41.10;;;;;;5092727;28;20463;-77
2023/08/22 09:58:23;;;;;;;9.33;6.20;;;38.10;40.00;;;;;;5092660;28;20532;-76
2023/08/22 10:00:52;;;;;;;7.63;5.73;;;38.20;40.30;;;;;;5092929;28;20437;-76
2023/08/22 10:03:19;;;;;;;11.27;5.60;;;38.30;40.40;;;;;;5093045;28;20432;-76
2023/08/22 10:05:51;;;;;;;8.90;6.83;;;38.40;39.50;;;;;;5093050;28;20811;-76
2023/08/22 10:08:19;;;;;;;7.13;6.43;;;38.50;40.30;;;;;;5094636;28;20839;-76
2023/08/22 10:10:49;;;;;;;6.73;5.20;;;38.60;39.90;;;;;;5096431;28;20870;-76
2023/08/22 10:13:18;;;;;;;9.63;5.80;;;38.70;39.20;;;;;;5093442;28;20495;-76
2023/08/22 10:15:47;;;;;;;8.87;5.70;;;38.80;39.40;;;;;;5096618;28;20464;-76
2023/08/22 10:18:14;;;;;;;8.33;6.00;;;38.90;38.00;;;;;;5096591;28;20916;-76
2023/08/22 10:20:43;;;;;;;8.73;5.40;;;38.90;37.80;;;;;;5096987;28;20506;-76
2023/08/22 10:23:10;;;;;;;7.77;6.43;;;39.00;37.70;;;;;;5096830;28;20460;-76
2023/08/22 10:25:51;;;;;;;9.67;5.73;;;39.10;38.20;;;;;;5096917;28;20497;-76
2023/08/22 10:28:18;;;;;;;6.30;5.07;;;39.10;36.80;;;;;;5096979;28;20437;-76
2023/08/22 10:31:05;;;;;;;6.30;5.70;;;39.20;35.20;;;;;;5096969;28;20529;-76
2023/08/22 10:33:32;;;;;;;7.37;6.50;;;39.20;34.50;;;;;;5096787;28;20445;-76
2023/08/22 10:36:04;;;;;;;9.00;5.40;;;39.10;34.40;;;;;;5096628;28;20872;-76
2023/08/22 10:38:46;;;;;;;8.97;6.13;;;39.20;35.80;;;;;;5094115;28;20522;-76
2023/08/22 10:41:14;;;;;;;5.53;5.03;;;39.20;35.70;;;;;;5096267;28;20864;-76
2023/08/22 10:43:41;;;;;;;8.10;5.77;;;39.30;34.70;;;;;;5096565;28;20434;-76
2023/08/22 10:46:08;;;;;;;10.20;6.00;;;39.20;33.80;;;;;;5096159;28;20436;-76
2023/08/22 10:48:36;;;;;;;6.53;4.80;;;39.10;34.00;;;;;;5096602;28;20427;-76
2023/08/22 10:51:07;;;;;;;8.33;5.50;;;39.10;34.20;;;;;;5096474;28;20490;-76
2023/08/22 10:53:43;;;;;;;8.13;4.90;;;39.00;35.20;;;;;;5096009;28;20977;-76
2023/08/22 10:56:22;;;;;;;7.93;5.83;;;39.00;35.60;;;;;;5096365;28;20804;-76
2023/08/22 10:58:59;;;;;;;10.97;6.00;;;39.00;35.60;;;;;;5096504;28;20426;-76
2023/08/22 11:01:30;;;;;;;6.53;5.83;;;39.00;34.50;;;;;;5095798;28;20429;-76
2023/08/22 11:03:59;;;;;;;13.13;6.50;;;39.00;35.00;;;;;;5095975;28;20484;-76
2023/08/22 11:06:31;;;;;;;13.33;6.50;;;38.90;33.50;;;;;;5095748;28;20433;-76
2023/08/22 11:09:00;;;;;;;8.87;5.53;;;38.70;34.00;;;;;;5095994;28;20825;-76
2023/08/22 11:11:29;;;;;;;6.80;6.10;;;38.70;35.10;;;;;;5095681;28;20530;-76
2023/08/22 11:14:05;;;;;;;7.97;6.10;;;38.70;35.10;;;;;;5094901;28;20490;-76
2023/08/22 11:16:33;;;;;;;6.37;4.53;;;38.80;35.50;;;;;;5095601;28;20491;-77
2023/08/22 11:19:00;;;;;;;7.90;6.13;;;38.80;34.90;;;;;;5095107;28;20433;-76
2023/08/22 11:21:29;;;;;;;8.53;6.20;;;38.80;35.50;;;;;;5094318;28;20800;-76
2023/08/22 11:23:59;;;;;;;7.20;5.90;;;38.90;35.20;;;;;;5094200;28;20445;-77
2023/08/22 11:26:26;;;;;;;6.90;5.47;;;38.90;35.80;;;;;;5095412;28;20987;-76
2023/08/22 11:28:55;;;;;;;8.13;6.03;;;39.00;35.40;;;;;;5091612;28;20445;-76
2023/08/22 11:31:22;;;;;;;6.67;5.63;;;39.10;35.80;;;;;;5094644;28;20519;-76
2023/08/22 11:33:52;;;;;;;9.70;6.10;;;39.10;35.60;;;;;;5095214;28;20427;-76
2023/08/22 11:36:24;;;;;;;6.87;5.87;;;39.20;35.40;;;;;;5095113;28;20470;-76
2023/08/22 11:38:53;;;;;;;8.73;5.87;;;39.20;35.40;;;;;;5093971;28;20867;-76
2023/08/22 11:41:22;;;;;;;6.30;5.40;;;39.20;34.90;;;;;;5095348;28;20483;-76
2023/08/22 11:43:58;;;;;;;6.97;6.00;;;39.20;35.20;;;;;;5094974;28;20442;-76
2023/08/22 11:46:38;;;;;;;8.43;5.67;;;39.20;34.40;;;;;;5095264;28;20425;-76
2023/08/22 11:49:07;;;;;;;7.90;7.10;;;39.30;34.50;;;;;;5083335;28;20467;-76
2023/08/22 11:51:34;;;;;;;8.87;6.50;;;39.30;35.40;;;;;;5092959;28;20472;-76
2023/08/22 11:54:02;;;;;;;7.10;5.60;;;39.30;34.70;;;;;;5094108;28;20454;-76
2023/08/22 11:56:29;;;;;;;7.77;6.10;;;39.30;34.60;;;;;;5093035;28;20551;-76
2023/08/22 11:58:58;;;;;;;7.83;6.07;;;39.20;33.80;;;;;;5092869;28;20951;-79
2023/08/22 12:01:25;;;;;;;8.63;5.50;;;39.20;34.00;;;;;;5092388;28;20443;-77
2023/08/22 12:03:57;;;;;;;11.83;6.37;;;39.20;34.90;;;;;;5094507;28;20445;-76
2023/08/22 12:06:24;;;;;;;6.40;5.50;;;39.20;35.00;;;;;;5094832;28;20455;-77
2023/08/22 12:08:56;;;;;;;8.37;6.10;;;39.20;35.00;;;;;;5094623;28;20929;-76
2023/08/22 12:11:24;;;;;;;10.07;5.93;;;39.10;34.00;;;;;;5094587;28;20502;-76
2023/08/22 12:13:52;;;;;;;6.97;5.60;;;39.00;33.70;;;;;;5095113;28;20857;-76
2023/08/22 12:16:20;;;;;;;7.57;6.23;;;39.00;34.90;;;;;;5094250;28;20567;-76
2023/08/22 12:18:52;;;;;;;6.77;6.07;;;39.00;33.90;;;;;;5094887;28;20437;-76
2023/08/22 12:21:19;;;;;;;12.63;6.57;;;38.90;33.70;;;;;;5094790;28;20478;-76
2023/08/22 12:23:49;;;;;;;7.20;6.50;;;38.80;33.60;;;;;;5094614;28;20794;-76
2023/08/22 12:26:16;;;;;;;8.60;6.10;;;38.80;33.60;;;;;;5094653;28;20474;-76
2023/08/22 12:28:43;;;;;;;9.07;6.10;;;38.80;34.20;;;;;;5094823;28;20793;-76
2023/08/22 12:31:10;;;;;;;6.90;5.73;;;38.70;34.30;;;;;;5094548;28;20434;-76
2023/08/22 12:33:38;;;;;;;8.73;6.67;;;38.70;34.40;;;;;;5094092;28;20433;-76
2023/08/22 12:36:06;;;;;;;10.57;6.73;;;38.60;34.30;;;;;;5094340;28;20434;-76
2023/08/22 12:38:37;;;;;;;6.27;5.67;;;38.60;34.70;;;;;;5094034;28;20443;-76
2023/08/22 12:41:07;;;;;;;6.50;5.20;;;38.60;34.80;;;;;;5094168;28;20467;-76
2023/08/22 12:43:38;;;;;;;6.63;5.60;;;38.50;34.60;;;;;;5094281;28;20473;-76
2023/08/22 12:46:09;;;;;;;10.67;6.33;;;38.50;34.30;;;;;;5093835;28;20429;-76
2023/08/22 12:48:42;;;;;;;10.93;5.67;;;38.50;34.60;;;;;;5093803;28;20963;-76
2023/08/22 12:51:14;;;;;;;11.33;6.20;;;38.40;34.90;;;;;;5093759;28;20421;-76